Close sub menu
NASDAQ
NY-Nasdaq Composite 15129,090 +107,28 +0,71% (23:16)
Stijgers 1 dag
Dalers 1 dag
Indices 1 dag
Baidu +4,7%
JD.com +3,0%
Fox Corp +2,6%
Vertex Pharmaceuticals +2,5%
NetEase +2,5%
NXP Semiconductors NV +2,4%
Skyworks Solutions +2,2%
Fox Corp +2,1%
Adobe +2,1%
Comcast Corp +1,9%
Analog Devices +1,9%
Cerner Corp +1,8%
Marriott International -2,6%
Trip.com Group Limited -1,7%
Booking Holdings -1,6%
CrowdStrike Holdings -1,1%
Atlassian Corp -1,0%
Okta -0,9%
Walgreens Boots Alliance -0,8%
Ross Stores -0,8%
Tesla -0,7%
Dollar Tree -0,7%
Biogen -0,6%
Monster Beverage Corp -0,5%
AEX* 802,49+0,7%
Midkap* 1.069,81+0,1%
AScX* 1.369,680,0%
FTSE100 7.217,53+0,2%
Dow Jones 35.457,31+0,6%
NASDAQ 15.129,09+0,7%
S&P500 4.519,63+0,7%
S&P Future 4.514,00+0,8%
BEL20** 4.200,56+0,5%
CAC 40** 6.669,850,0%
DAX 15.515,83+0,3%
* real time    ** slotkoers
NaamKoersVorige+/- %1 wk1 mndDit jaar 1 jaarTijd
Activision Blizzard 77,18 76,40 +1,0% +0,1% -4,0% -17,7% -5,2% 22:00
Adobe 636,07 622,83 +2,1% +8,7% -4,8% +24,5% +23,9% 22:00
Advanced Micro Devices 116,33 116,43 -0,1% +11,2% +12,1% +27,0% +40,0% 22:00
Align Technology 594,27 595,13 -0,1% -5,8% -17,3% +11,4% +76,8% 22:00
Alphabet 2.876,44 2.859,21 +0,6% +3,0% +1,1% +63,2% +81,8% 22:00
Alphabet 2.864,74 2.855,56 +0,3% +2,8% +1,4% +62,9% +82,1% 22:00
Amazon.com 3.444,15 3.446,74 -0,1% +6,2% -0,5% +5,8% +5,3% 22:00
American Electric Power Company 83,80 82,99 +1,0% +0,6% -1,3% -0,3% -9,3% 22:00
Amgen 206,78 203,13 +1,8% -1,7% -7,4% -11,7% -13,8% 22:00
Analog Devices 176,63 173,33 +1,9% +3,2% +1,1% +17,3% +40,2% 22:00
Ansys 366,03 360,96 +1,4% +4,9% -1,0% -0,8% +3,2% 22:00
Apple 148,76 146,55 +1,5% +2,6% +0,3% +10,4% +23,1% 22:00
Applied Materials 134,60 133,28 +1,0% +4,5% -5,3% +54,4% +111,6% 22:00
ASML Holding NV 800,96 788,22 +1,6% +9,2% -8,3% +61,6% +103,7% 22:00
Atlassian Corp 410,46 414,77 -1,0% +6,5% +2,5% +77,4% +99,9% 22:00
Autodesk 296,69 292,67 +1,4% +5,8% +1,6% -4,1% +12,6% 22:00
Automatic Data Processing 213,98 212,57 +0,7% +4,3% +7,0% +20,6% +43,2% 22:00
Baidu 179,00 171,04 +4,7% +5,5% +5,4% -20,9% +31,2% 22:00
Biogen 268,13 269,73 -0,6% -5,6% -10,1% +10,2% -3,7% 22:00
Booking Holdings 2.463,10 2.502,13 -1,6% +1,4% +7,6% +12,3% +50,0% 22:00
Broadcom 510,39 503,36 +1,4% +2,2% -0,5% +15,0% +32,9% 22:00
Cadence Design Systems 158,83 157,54 +0,8% +5,4% -3,7% +15,5% +36,2% 22:00
CDW Corp 187,63 186,23 +0,8% +6,7% -2,6% +41,3% +42,6% 22:00
Cerner Corp 71,41 70,12 +1,8% -0,7% -6,6% -10,7% -6,0% 22:00
Charter Communications 717,91 706,88 +1,6% +1,7% -7,4% +6,9% +11,5% 22:00
Check Point Software Technologies Ltd 121,78 120,50 +1,1% +1,3% +2,7% -9,3% -4,8% 22:00
Cintas Corp 423,90 421,07 +0,7% +4,6% +7,2% +19,1% +20,9% 22:00
Cisco Systems 55,74 55,19 +1,0% +0,5% -2,9% +23,3% +37,4% 22:00
Cognizant Technology Solutions Corp 79,79 78,89 +1,1% +4,6% +4,5% -3,7% +7,5% 22:00
Comcast Corp 54,24 53,22 +1,9% +1,9% -6,8% +1,6% +16,8% 22:00
Copart 148,13 147,68 +0,3% +6,4% +2,6% +16,1% +26,0% 22:00
Costco Wholesale Corp 467,08 461,95 +1,1% +2,7% +0,5% +22,6% +21,1% 22:00
CrowdStrike Holdings 282,35 285,35 -1,1% +16,8% +8,5% +34,7% +96,3% 22:00
CSX Corp 34,11 34,23 -0,4% +5,3% +12,9% +13,2% +28,2% 22:00
DexCom 550,05 541,28 +1,6% +2,4% -3,9% +46,4% +33,6% 22:00
DocuSign 272,89 269,70 +1,2% +3,1% -2,9% +21,3% +15,0% 22:00
Dollar Tree 100,28 100,95 -0,7% +2,5% +13,0% -6,6% +5,6% 22:00
eBay 74,72 74,25 +0,6% -0,3% +0,2% +47,8% +33,0% 22:00
Electronic Arts 136,75 134,71 +1,5% -3,4% +0,6% -6,2% +2,1% 22:00
Exelon Corp 50,32 49,89 +0,9% +4,9% +0,1% +18,2% +18,5% 22:00
Facebook 339,99 335,34 +1,4% +3,0% -8,1% +22,8% +26,1% 22:00
Fastenal Company 56,26 55,66 +1,1% +6,6% +5,1% +14,0% +23,0% 22:00
Fiserv 111,29 110,01 +1,2% +6,0% +1,3% -3,4% +8,7% 22:00
Fox Corp 39,93 39,09 +2,1% +0,5% +11,4% +35,4% +44,1% 22:00
Fox Corp 43,03 41,93 +2,6% -0,4% +11,2% +44,0% +56,1% 22:00
Gilead Sciences 66,90 65,90 +1,5% -3,2% -8,0% +13,1% +6,3% 22:00
Honeywell International 221,78 220,63 +0,5% +2,5% +1,0% +3,7% +26,2% 22:00
IDEXX Laboratories 640,99 638,29 +0,4% +4,2% -3,5% +27,7% +50,6% 22:00
Illumina 414,08 410,53 +0,9% +1,5% -8,2% +11,0% +25,8% 22:00
Incyte Corp 65,47 64,58 +1,4% -0,4% -15,0% -25,8% -28,7% 22:00
Intel Corp 55,21 54,47 +1,4% +1,9% +0,4% +9,3% +0,6% 22:00
Intuit 572,80 564,56 +1,5% +7,5% +0,5% +48,6% +65,5% 22:00
Intuitive Surgical 336,30 332,30 +1,2% +2,5% -68,0% -59,4% -55,9% 22:00
JD.com 84,91 82,42 +3,0% +5,7% +6,1% -6,2% +1,1% 22:00
Keurig Dr Pepper 34,75 34,76 0,0% -1,1% -0,4% +8,6% +16,8% 22:00
KLA Corp 332,14 326,77 +1,6% +0,5% -11,6% +26,2% +56,8% 22:00
Kraft Heinz Company (The) 36,81 36,88 -0,2% +0,3% +0,9% +6,4% +14,7% 22:00
Lam Research Corp 570,83 568,70 +0,4% +2,9% -6,6% +20,4% +55,8% 22:00
lululemon athletica 416,64 417,38 -0,2% +8,1% -2,1% +19,9% +19,3% 22:00
Marriott International 155,02 159,21 -2,6% +1,5% +10,6% +20,7% +62,9% 22:00
Marvell Technology 67,85 67,17 +1,0% +5,9% +8,2% +41,3% +56,4% 22:00
Match Group 160,69 158,23 +1,6% +1,7% +0,7% +4,7% +41,0% 22:00
MercadoLibre 1.591,26 1.592,62 -0,1% +9,1% -15,2% -4,9% +25,3% 22:00
Microchip Technology 74,85 73,81 +1,4% -48,7% -8,4% +6,9% +33,2% 22:00
Micron Technology Inc 67,57 67,26 +0,5% -2,8% -9,5% -10,5% +30,3% 22:00
Microsoft Corp 308,23 307,29 +0,3% +4,4% +2,5% +38,2% +39,9% 22:00
Moderna 333,61 334,84 -0,4% +9,7% -22,1% +220,5% +352,9% 22:00
Mondelez International 59,79 59,75 +0,1% +0,6% -2,0% +2,2% +3,1% 22:00
Monster Beverage Corp 85,00 85,43 -0,5% -3,0% -9,7% -7,6% +5,8% 22:00
NetEase 100,39 97,90 +2,5% +2,0% +18,1% +2,2% +10,6% 22:00
Netflix 639,00 637,97 +0,2% +1,7% +8,2% +18,0% +20,2% 22:00
NVIDIA Corp 222,90 222,22 +0,3% +7,4% +1,5% +70,2% +60,9% 22:00
NXP Semiconductors NV 196,95 192,26 +2,4% +3,4% -8,2% +20,9% +40,1% 22:00
Okta 257,71 259,92 -0,9% +15,1% +0,7% +2,2% +6,5% 22:00
O'Reilly Automotive 638,24 638,33 0,0% +5,5% +6,5% +41,0% +36,7% 22:00
PACCAR 86,50 85,78 +0,8% +2,4% +5,2% -0,6% -4,6% 22:00
Paychex 121,81 120,11 +1,4% +2,4% +10,4% +28,9% +43,4% 22:00
PayPal Holdings 271,70 270,33 +0,5% +6,0% -2,2% +15,4% +32,2% 22:00
Peloton Interactive 88,19 87,65 +0,6% +3,3% -15,2% -42,2% -33,3% 22:00
Pepsico 160,10 158,09 +1,3% +1,2% +2,6% +6,6% +11,5% 22:00
Pinduoduo 97,52 97,00 +0,5% +2,3% -3,7% -45,4% +15,4% 22:00
QUALCOMM 132,50 130,12 +1,8% +4,1% -2,6% -14,6% +0,8% 22:00
Regeneron Pharmaceuticals 552,11 543,48 +1,6% -0,5% -16,6% +12,5% -9,4% 22:00
Ross Stores 108,66 109,50 -0,8% +3,8% -4,5% -10,8% +15,1% 22:00
Seagen 174,19 171,97 +1,3% +6,1% +10,1% -1,8% -14,4% 22:00
Sirius XM Holdings 6,02 6,03 -0,2% +1,2% -0,8% -5,3% +3,3% 22:00
Skyworks Solutions 164,75 161,28 +2,2% +1,1% -8,0% +5,5% +5,3% 22:00
Splunk 165,59 163,93 +1,0% +8,4% +8,0% -3,5% -20,9% 22:00
Starbucks Corp 113,49 113,37 +0,1% +2,2% 0,0% +6,0% +28,1% 22:00
Synopsys 311,00 307,22 +1,2% +6,4% -5,6% +18,5% +35,6% 22:00
Tesla 864,27 870,11 -0,7% +9,9% +14,6% +23,3% +97,9% 22:00
Texas Instruments 198,23 194,91 +1,7% +0,8% -0,7% +18,8% +27,3% 22:00
T-Mobile US 118,56 117,38 +1,0% +0,2% -8,3% -13,0% +2,1% 22:00
Trip.com Group Limited 31,28 31,82 -1,7% +0,5% +10,4% -5,7% +6,4% 22:00
VeriSign 215,59 214,41 +0,6% +4,7% -2,0% -0,9% +3,4% 22:00
Verisk Analytics 212,05 211,04 +0,5% +2,2% +4,9% +1,7% +9,6% 22:00
Vertex Pharmaceuticals 185,41 180,80 +2,5% +0,7% -4,0% -23,5% -17,1% 22:00
Walgreens Boots Alliance 48,01 48,40 -0,8% +2,1% -2,5% +21,4% +29,4% 22:00
Workday 277,27 272,67 +1,7% +7,5% +1,5% +13,8% +18,8% 22:00
Xcel Energy 64,93 64,68 +0,4% +3,6% +1,1% -3,0% -11,6% 22:00
vorige 1 2 volgende 
Powered by
image/svg+xml

Browser niet ondersteund

De versie van uw browser wordt niet (meer) ondersteund vanwege mogelijke beveiligingsrisico’s. Daarnaast kan het zijn dat een enkele functionaliteit op FD.nl niet beschikbaar of geoptimaliseerd is voor uw browser.

Wat kunt u doen?

We willen u een zo goed mogelijke ervaring bieden. Zorg er daarom voor dat u de nieuwste versie van één van de volgende browsers gebruikt: Chrome, Safari of Edge. Indien u dit niet zelf kunt, neem dan contact op met uw eigen IT-supportafdeling.

Meer informatie
Meer informatie